sensor_id;sensor_type;location;lat;lon;timestamp;pressure;altitude;pressure_sealevel;temperature;humidity
30302;BME280;17111;52.130;5.028;2023-03-03T00:00:54;102644.56;;;16.95;45.98
30302;BME280;17111;52.130;5.028;2023-03-03T00:03:23;102641.16;;;16.93;46.40
30302;BME280;17111;52.130;5.028;2023-03-03T00:05:50;102653.69;;;16.93;46.45
30302;BME280;17111;52.130;5.028;2023-03-03T00:08:18;102653.78;;;16.91;46.43
30302;BME280;17111;52.130;5.028;2023-03-03T00:10:46;102655.72;;;16.89;45.94
30302;BME280;17111;52.130;5.028;2023-03-03T00:13:21;102656.66;;;16.88;45.94
30302;BME280;17111;52.130;5.028;2023-03-03T00:15:49;102654.09;;;16.87;46.17
30302;BME280;17111;52.130;5.028;2023-03-03T00:18:34;102643.47;;;16.85;45.92
30302;BME280;17111;52.130;5.028;2023-03-03T00:21:02;102649.69;;;16.86;46.24
30302;BME280;17111;52.130;5.028;2023-03-03T00:23:36;102649.78;;;16.84;45.81
30302;BME280;17111;52.130;5.028;2023-03-03T00:26:28;102649.16;;;16.81;46.73
30302;BME280;17111;52.130;5.028;2023-03-03T00:28:56;102650.88;;;16.82;46.05
30302;BME280;17111;52.130;5.028;2023-03-03T00:34:02;102651.06;;;16.78;46.24
30302;BME280;17111;52.130;5.028;2023-03-03T00:36:38;102659.19;;;16.77;46.05
30302;BME280;17111;52.130;5.028;2023-03-03T00:41:40;102655.75;;;16.75;46.72
30302;BME280;17111;52.130;5.028;2023-03-03T00:44:39;102662.22;;;16.71;46.89
30302;BME280;17111;52.130;5.028;2023-03-03T00:47:31;102661.28;;;16.72;45.84
30302;BME280;17111;52.130;5.028;2023-03-03T00:52:40;102662.34;;;16.69;46.84
30302;BME280;17111;52.130;5.028;2023-03-03T00:55:10;102673.06;;;16.69;46.64
30302;BME280;17111;52.130;5.028;2023-03-03T00:57:37;102672.28;;;16.67;46.39
30302;BME280;17111;52.130;5.028;2023-03-03T01:00:04;102672.41;;;16.66;46.60
30302;BME280;17111;52.130;5.028;2023-03-03T01:02:30;102671.44;;;16.67;46.32
30302;BME280;17111;52.130;5.028;2023-03-03T01:04:57;102673.38;;;16.65;46.90
30302;BME280;17111;52.130;5.028;2023-03-03T01:07:23;102670.75;;;16.63;46.54
30302;BME280;17111;52.130;5.028;2023-03-03T01:09:50;102671.72;;;16.62;46.70
30302;BME280;17111;52.130;5.028;2023-03-03T01:12:17;102665.59;;;16.60;46.65
30302;BME280;17111;52.130;5.028;2023-03-03T01:14:44;102673.63;;;16.60;45.99
30302;BME280;17111;52.130;5.028;2023-03-03T01:17:11;102673.75;;;16.59;46.78
30302;BME280;17111;52.130;5.028;2023-03-03T01:19:37;102672.03;;;16.58;46.41
30302;BME280;17111;52.130;5.028;2023-03-03T01:22:04;102671.19;;;16.57;46.56
30302;BME280;17111;52.130;5.028;2023-03-03T01:24:30;102669.44;;;16.56;46.34
30302;BME280;17111;52.130;5.028;2023-03-03T01:26:57;102674.91;;;16.54;46.95
30302;BME280;17111;52.130;5.028;2023-03-03T01:29:23;102670.50;;;16.53;46.94
30302;BME280;17111;52.130;5.028;2023-03-03T01:31:50;102675.00;;;16.53;46.92
30302;BME280;17111;52.130;5.028;2023-03-03T01:34:17;102676.91;;;16.51;46.52
30302;BME280;17111;52.130;5.028;2023-03-03T01:36:43;102677.03;;;16.49;45.95
30302;BME280;17111;52.130;5.028;2023-03-03T01:39:10;102681.53;;;16.49;46.44
30302;BME280;17111;52.130;5.028;2023-03-03T01:41:37;102682.47;;;16.48;47.05
30302;BME280;17111;52.130;5.028;2023-03-03T01:44:04;102689.75;;;16.46;47.04
30302;BME280;17111;52.130;5.028;2023-03-03T01:49:14;102680.06;;;16.43;46.15
30302;BME280;17111;52.130;5.028;2023-03-03T01:51:49;102685.53;;;16.42;46.76
30302;BME280;17111;52.130;5.028;2023-03-03T01:54:22;102690.03;;;16.41;46.29
30302;BME280;17111;52.130;5.028;2023-03-03T01:56:52;102686.69;;;16.38;46.28
30302;BME280;17111;52.130;5.028;2023-03-03T01:59:26;102688.59;;;16.36;46.52
30302;BME280;17111;52.130;5.028;2023-03-03T02:01:54;102693.94;;;16.36;46.27
30302;BME280;17111;52.130;5.028;2023-03-03T02:04:21;102694.06;;;16.34;46.08
30302;BME280;17111;52.130;5.028;2023-03-03T02:06:53;102695.03;;;16.33;47.11
30302;BME280;17111;52.130;5.028;2023-03-03T02:09:31;102693.38;;;16.31;47.15
30302;BME280;17111;52.130;5.028;2023-03-03T02:12:06;102689.84;;;16.30;46.49
30302;BME280;17111;52.130;5.028;2023-03-03T02:14:33;102689.97;;;16.28;46.57
30302;BME280;17111;52.130;5.028;2023-03-03T02:17:00;102686.41;;;16.28;47.12
30302;BME280;17111;52.130;5.028;2023-03-03T02:19:30;102690.03;;;16.27;46.15
30302;BME280;17111;52.130;5.028;2023-03-03T02:21:59;102691.88;;;16.26;45.94
30302;BME280;17111;52.130;5.028;2023-03-03T02:24:34;102682.97;;;16.26;46.92
30302;BME280;17111;52.130;5.028;2023-03-03T02:27:04;102683.09;;;16.24;46.54
30302;BME280;17111;52.130;5.028;2023-03-03T02:29:30;102690.16;;;16.25;46.58
30302;BME280;17111;52.130;5.028;2023-03-03T02:31:57;102694.72;;;16.23;46.84
30302;BME280;17111;52.130;5.028;2023-03-03T02:34:25;102689.38;;;16.23;47.24
30302;BME280;17111;52.130;5.028;2023-03-03T02:36:51;102684.03;;;16.23;46.72
30302;BME280;17111;52.130;5.028;2023-03-03T02:39:20;102685.84;;;16.23;47.00
30302;BME280;17111;52.130;5.028;2023-03-03T02:42:07;102691.31;;;16.21;46.91
30302;BME280;17111;52.130;5.028;2023-03-03T02:44:35;102692.16;;;16.22;47.04
30302;BME280;17111;52.130;5.028;2023-03-03T02:47:01;102681.56;;;16.20;46.64
30302;BME280;17111;52.130;5.028;2023-03-03T02:49:30;102685.16;;;16.19;46.43
30302;BME280;17111;52.130;5.028;2023-03-03T02:51:58;102687.00;;;16.19;46.17
30302;BME280;17111;52.130;5.028;2023-03-03T02:54:26;102689.66;;;16.19;46.30
30302;BME280;17111;52.130;5.028;2023-03-03T02:56:56;102687.09;;;16.17;46.49
30302;BME280;17111;52.130;5.028;2023-03-03T02:59:22;102693.31;;;16.18;46.09
30302;BME280;17111;52.130;5.028;2023-03-03T03:01:49;102692.34;;;16.19;46.37
30302;BME280;17111;52.130;5.028;2023-03-03T03:04:21;102691.59;;;16.17;47.11
30302;BME280;17111;52.130;5.028;2023-03-03T03:06:49;102695.13;;;16.17;46.79
30302;BME280;17111;52.130;5.028;2023-03-03T03:09:17;102694.34;;;16.15;46.12
30302;BME280;17111;52.130;5.028;2023-03-03T03:11:43;102682.78;;;16.15;46.88
30302;BME280;17111;52.130;5.028;2023-03-03T03:14:12;102688.25;;;16.13;46.88
30302;BME280;17111;52.130;5.028;2023-03-03T03:16:39;102688.25;;;16.13;46.61
30302;BME280;17111;52.130;5.028;2023-03-03T03:19:06;102683.88;;;16.12;47.23
30302;BME280;17111;52.130;5.028;2023-03-03T03:21:33;102683.88;;;16.12;47.15
30302;BME280;17111;52.130;5.028;2023-03-03T03:24:00;102683.88;;;16.12;46.61
30302;BME280;17111;52.130;5.028;2023-03-03T03:26:26;102688.44;;;16.10;46.63
30302;BME280;17111;52.130;5.028;2023-03-03T03:28:53;102691.09;;;16.10;46.19
30302;BME280;17111;52.130;5.028;2023-03-03T03:31:20;102685.88;;;16.09;46.56
30302;BME280;17111;52.130;5.028;2023-03-03T03:33:47;102682.34;;;16.08;46.99
30302;BME280;17111;52.130;5.028;2023-03-03T03:36:14;102690.34;;;16.08;46.89
30302;BME280;17111;52.130;5.028;2023-03-03T03:38:41;102689.47;;;16.08;46.46
30302;BME280;17111;52.130;5.028;2023-03-03T03:41:09;102691.28;;;16.07;47.01
30302;BME280;17111;52.130;5.028;2023-03-03T03:43:36;102692.25;;;16.06;46.89
30302;BME280;17111;52.130;5.028;2023-03-03T03:46:03;102693.22;;;16.05;46.92
30302;BME280;17111;52.130;5.028;2023-03-03T03:48:30;102699.44;;;16.06;46.89
30302;BME280;17111;52.130;5.028;2023-03-03T03:50:56;102695.91;;;16.05;46.84
30302;BME280;17111;52.130;5.028;2023-03-03T03:53:23;102694.19;;;16.04;46.24
30302;BME280;17111;52.130;5.028;2023-03-03T03:55:49;102695.97;;;16.03;47.16
30302;BME280;17111;52.130;5.028;2023-03-03T03:58:17;102704.88;;;16.04;46.39
30302;BME280;17111;52.130;5.028;2023-03-03T04:00:45;102699.59;;;16.02;46.21
30302;BME280;17111;52.130;5.028;2023-03-03T04:03:12;102708.59;;;16.01;46.36
30302;BME280;17111;52.130;5.028;2023-03-03T04:05:42;102709.44;;;16.02;46.69
30302;BME280;17111;52.130;5.028;2023-03-03T04:08:09;102708.59;;;16.01;46.98
30302;BME280;17111;52.130;5.028;2023-03-03T04:10:36;102710.41;;;16.01;46.97
30302;BME280;17111;52.130;5.028;2023-03-03T04:13:03;102700.75;;;15.98;47.18
30302;BME280;17111;52.130;5.028;2023-03-03T04:15:29;102705.13;;;15.99;46.95
30302;BME280;17111;52.130;5.028;2023-03-03T04:17:56;102706.09;;;15.98;46.81
30302;BME280;17111;52.130;5.028;2023-03-03T04:20:23;102702.56;;;15.98;47.23
30302;BME280;17111;52.130;5.028;2023-03-03T04:22:49;102708.88;;;15.97;47.36
30302;BME280;17111;52.130;5.028;2023-03-03T04:25:16;102706.22;;;15.97;46.66
30302;BME280;17111;52.130;5.028;2023-03-03T04:27:43;102706.22;;;15.97;47.04
30302;BME280;17111;52.130;5.028;2023-03-03T04:30:11;102711.56;;;15.97;47.02
30302;BME280;17111;52.130;5.028;2023-03-03T04:32:38;102708.03;;;15.96;46.38
30302;BME280;17111;52.130;5.028;2023-03-03T04:35:05;102709.81;;;15.96;47.27
30302;BME280;17111;52.130;5.028;2023-03-03T04:37:34;102711.63;;;15.95;46.62
30302;BME280;17111;52.130;5.028;2023-03-03T04:40:03;102712.59;;;15.94;46.45
30302;BME280;17111;52.130;5.028;2023-03-03T04:42:30;102714.41;;;15.94;47.27
30302;BME280;17111;52.130;5.028;2023-03-03T04:44:56;102714.41;;;15.94;47.19
30302;BME280;17111;52.130;5.028;2023-03-03T04:47:23;102717.19;;;15.92;46.68
30302;BME280;17111;52.130;5.028;2023-03-03T04:49:49;102718.03;;;15.93;47.00
30302;BME280;17111;52.130;5.028;2023-03-03T04:52:16;102711.06;;;15.90;47.18
30302;BME280;17111;52.130;5.028;2023-03-03T04:54:43;102715.44;;;15.91;46.75
30302;BME280;17111;52.130;5.028;2023-03-03T04:57:09;102713.72;;;15.90;46.42
30302;BME280;17111;52.130;5.028;2023-03-03T04:59:36;102710.22;;;15.90;47.04
30302;BME280;17111;52.130;5.028;2023-03-03T05:02:03;102719.19;;;15.89;46.41
30302;BME280;17111;52.130;5.028;2023-03-03T05:04:32;102712.09;;;15.88;47.51
30302;BME280;17111;52.130;5.028;2023-03-03T05:06:59;102716.50;;;15.89;47.29
30302;BME280;17111;52.130;5.028;2023-03-03T05:09:26;102709.44;;;15.88;47.55
30302;BME280;17111;52.130;5.028;2023-03-03T05:11:52;102713.06;;;15.87;46.79
30302;BME280;17111;52.130;5.028;2023-03-03T05:14:19;102705.88;;;15.87;46.46
30302;BME280;17111;52.130;5.028;2023-03-03T05:16:46;102715.72;;;15.87;46.47
30302;BME280;17111;52.130;5.028;2023-03-03T05:19:13;102709.53;;;15.86;47.12
30302;BME280;17111;52.130;5.028;2023-03-03T05:21:39;102708.69;;;15.86;47.25
30302;BME280;17111;52.130;5.028;2023-03-03T05:24:10;102714.03;;;15.86;46.50
30302;BME280;17111;52.130;5.028;2023-03-03T05:26:38;102710.50;;;15.85;47.34
30302;BME280;17111;52.130;5.028;2023-03-03T05:29:05;102710.50;;;15.85;47.26
30302;BME280;17111;52.130;5.028;2023-03-03T05:31:32;102713.16;;;15.85;46.74
30302;BME280;17111;52.130;5.028;2023-03-03T05:33:59;102714.13;;;15.84;46.57
30302;BME280;17111;52.130;5.028;2023-03-03T05:36:25;102712.31;;;15.85;46.52
30302;BME280;17111;52.130;5.028;2023-03-03T05:38:52;102714.13;;;15.84;47.30
30302;BME280;17111;52.130;5.028;2023-03-03T05:41:18;102716.81;;;15.84;47.52
30302;BME280;17111;52.130;5.028;2023-03-03T05:43:45;102719.47;;;15.84;46.49
30302;BME280;17111;52.130;5.028;2023-03-03T05:46:12;102713.16;;;15.85;46.96
30302;BME280;17111;52.130;5.028;2023-03-03T05:48:38;102708.84;;;15.83;47.24
30302;BME280;17111;52.130;5.028;2023-03-03T05:51:05;102709.72;;;15.83;46.74
30302;BME280;17111;52.130;5.028;2023-03-03T05:53:32;102714.19;;;15.83;47.28
30302;BME280;17111;52.130;5.028;2023-03-03T05:55:58;102715.91;;;15.84;47.05
30302;BME280;17111;52.130;5.028;2023-03-03T05:58:25;102715.06;;;15.83;47.06
30302;BME280;17111;52.130;5.028;2023-03-03T06:00:51;102720.41;;;15.83;46.56
30302;BME280;17111;52.130;5.028;2023-03-03T06:03:18;102712.50;;;15.82;47.23
30302;BME280;17111;52.130;5.028;2023-03-03T06:05:45;102708.97;;;15.81;47.50
30302;BME280;17111;52.130;5.028;2023-03-03T06:08:11;102714.31;;;15.81;47.52
30302;BME280;17111;52.130;5.028;2023-03-03T06:10:38;102718.78;;;15.81;46.81
30302;BME280;17111;52.130;5.028;2023-03-03T06:13:04;102717.94;;;15.80;47.22
30302;BME280;17111;52.130;5.028;2023-03-03T06:15:31;102714.38;;;15.79;46.47
30302;BME280;17111;52.130;5.028;2023-03-03T06:17:58;102725.06;;;15.79;46.46
30302;BME280;17111;52.130;5.028;2023-03-03T06:20:24;102728.72;;;15.78;47.10
30302;BME280;17111;52.130;5.028;2023-03-03T06:22:51;102734.91;;;15.79;46.55
30302;BME280;17111;52.130;5.028;2023-03-03T06:25:17;102736.72;;;15.78;47.59
30302;BME280;17111;52.130;5.028;2023-03-03T06:27:44;102735.88;;;15.78;47.57
30302;BME280;17111;52.130;5.028;2023-03-03T06:30:11;102738.53;;;15.78;47.76
30302;BME280;17111;52.130;5.028;2023-03-03T06:32:38;102738.53;;;15.78;47.72
30302;BME280;17111;52.130;5.028;2023-03-03T06:35:05;102737.69;;;15.77;47.58
30302;BME280;17111;52.130;5.028;2023-03-03T06:37:32;102735.97;;;15.76;47.06
30302;BME280;17111;52.130;5.028;2023-03-03T06:39:58;102737.78;;;15.76;47.12
30302;BME280;17111;52.130;5.028;2023-03-03T06:42:25;102739.56;;;15.75;47.02
30302;BME280;17111;52.130;5.028;2023-03-03T06:44:52;102744.94;;;15.75;47.63
30302;BME280;17111;52.130;5.028;2023-03-03T06:47:19;102744.06;;;15.75;47.04
30302;BME280;17111;52.130;5.028;2023-03-03T06:49:45;102745.88;;;15.74;47.69
30302;BME280;17111;52.130;5.028;2023-03-03T06:52:14;102746.94;;;15.72;46.87
30302;BME280;17111;52.130;5.028;2023-03-03T06:54:43;102758.50;;;15.72;47.19
30302;BME280;17111;52.130;5.028;2023-03-03T06:57:24;102763.91;;;15.71;47.29
30302;BME280;17111;52.130;5.028;2023-03-03T06:59:53;102764.78;;;15.71;47.20
30302;BME280;17111;52.130;5.028;2023-03-03T07:02:21;102767.56;;;15.70;46.91
30302;BME280;17111;52.130;5.028;2023-03-03T07:04:48;102764.88;;;15.70;46.60
30302;BME280;17111;52.130;5.028;2023-03-03T07:07:23;102765.84;;;15.69;47.74
30302;BME280;17111;52.130;5.028;2023-03-03T07:09:53;102772.03;;;15.69;47.60
30302;BME280;17111;52.130;5.028;2023-03-03T07:12:27;102779.22;;;15.69;46.80
30302;BME280;17111;52.130;5.028;2023-03-03T07:17:41;102778.34;;;15.68;46.79
30302;BME280;17111;52.130;5.028;2023-03-03T07:20:21;102780.16;;;15.68;47.00
30302;BME280;17111;52.130;5.028;2023-03-03T07:22:48;102779.28;;;15.67;47.24
30302;BME280;17111;52.130;5.028;2023-03-03T07:25:37;102782.84;;;15.68;46.86
30302;BME280;17111;52.130;5.028;2023-03-03T07:28:30;102787.41;;;15.66;47.99
30302;BME280;17111;52.130;5.028;2023-03-03T07:30:58;102792.56;;;15.69;46.92
30302;BME280;17111;52.130;5.028;2023-03-03T07:33:37;102791.72;;;15.68;46.81
30302;BME280;17111;52.130;5.028;2023-03-03T07:36:22;102795.31;;;15.67;48.10
30302;BME280;17111;52.130;5.028;2023-03-03T07:38:58;102789.03;;;15.68;47.88
30302;BME280;17111;52.130;5.028;2023-03-03T07:41:26;102795.25;;;15.69;47.20
30302;BME280;17111;52.130;5.028;2023-03-03T07:43:56;102791.72;;;15.68;47.68
30302;BME280;17111;52.130;5.028;2023-03-03T07:46:36;102798.78;;;15.69;47.43
30302;BME280;17111;52.130;5.028;2023-03-03T07:49:35;102797.91;;;15.69;48.19
30302;BME280;17111;52.130;5.028;2023-03-03T07:54:55;102804.13;;;15.69;48.23
30302;BME280;17111;52.130;5.028;2023-03-03T07:57:25;102815.66;;;15.70;47.62
30302;BME280;17111;52.130;5.028;2023-03-03T07:59:54;102816.53;;;15.70;47.86
30302;BME280;17111;52.130;5.028;2023-03-03T08:04:54;102823.59;;;15.71;48.37
30302;BME280;17111;52.130;5.028;2023-03-03T08:07:22;102819.19;;;15.70;47.93
30302;BME280;17111;52.130;5.028;2023-03-03T08:09:59;102822.72;;;15.71;48.16
30302;BME280;17111;52.130;5.028;2023-03-03T08:12:38;102825.41;;;15.71;47.98
30302;BME280;17111;52.130;5.028;2023-03-03T08:17:41;102833.34;;;15.72;48.33
30302;BME280;17111;52.130;5.028;2023-03-03T08:22:54;102841.28;;;15.74;47.31
30302;BME280;17111;52.130;5.028;2023-03-03T08:25:21;102838.59;;;15.74;47.21
30302;BME280;17111;52.130;5.028;2023-03-03T08:27:48;102846.53;;;15.75;47.30
30302;BME280;17111;52.130;5.028;2023-03-03T08:30:14;102839.47;;;15.74;47.27
30302;BME280;17111;52.130;5.028;2023-03-03T08:32:41;102843.84;;;15.75;47.55
30302;BME280;17111;52.130;5.028;2023-03-03T08:35:08;102847.41;;;15.76;47.78
30302;BME280;17111;52.130;5.028;2023-03-03T08:37:35;102846.44;;;15.77;47.17
30302;BME280;17111;52.130;5.028;2023-03-03T08:40:01;102847.31;;;15.77;47.61
30302;BME280;17111;52.130;5.028;2023-03-03T08:42:28;102841.84;;;15.79;47.42
30302;BME280;17111;52.130;5.028;2023-03-03T08:44:55;102851.63;;;15.80;47.99
30302;BME280;17111;52.130;5.028;2023-03-03T08:47:22;102845.31;;;15.81;47.37
30302;BME280;17111;52.130;5.028;2023-03-03T08:49:48;102847.91;;;15.83;47.10
30302;BME280;17111;52.130;5.028;2023-03-03T08:52:15;102846.06;;;15.83;47.92
30302;BME280;17111;52.130;5.028;2023-03-03T08:54:41;102851.34;;;15.85;47.21
30302;BME280;17111;52.130;5.028;2023-03-03T08:57:08;102860.13;;;15.87;46.90
30302;BME280;17111;52.130;5.028;2023-03-03T08:59:34;102856.50;;;15.88;47.66
30302;BME280;17111;52.130;5.028;2023-03-03T09:02:05;102854.59;;;15.90;48.11
30302;BME280;17111;52.130;5.028;2023-03-03T09:04:32;102861.66;;;15.91;48.04
30302;BME280;17111;52.130;5.028;2023-03-03T09:06:59;102867.69;;;15.94;47.35
30302;BME280;17111;52.130;5.028;2023-03-03T09:09:26;102859.56;;;15.96;47.74
30302;BME280;17111;52.130;5.028;2023-03-03T09:11:57;102856.84;;;15.97;47.94
30302;BME280;17111;52.130;5.028;2023-03-03T09:14:27;102860.19;;;16.01;47.24
30302;BME280;17111;52.130;5.028;2023-03-03T09:16:55;102852.06;;;16.02;46.97
30302;BME280;17111;52.130;5.028;2023-03-03T09:19:28;102849.31;;;16.04;47.74
30302;BME280;17111;52.130;5.028;2023-03-03T09:22:00;102844.63;;;16.08;47.89
30302;BME280;17111;52.130;5.028;2023-03-03T09:24:30;102851.50;;;16.12;47.06
30302;BME280;17111;52.130;5.028;2023-03-03T09:27:00;102850.28;;;16.17;48.05
30302;BME280;17111;52.130;5.028;2023-03-03T09:29:28;102842.94;;;16.21;47.09
30302;BME280;17111;52.130;5.028;2023-03-03T09:32:05;102840.84;;;16.26;47.25
30302;BME280;17111;52.130;5.028;2023-03-03T09:34:40;102847.56;;;16.33;47.22
30302;BME280;17111;52.130;5.028;2023-03-03T09:37:26;102849.94;;;16.38;46.91
30302;BME280;17111;52.130;5.028;2023-03-03T09:39:55;102849.66;;;16.42;47.32
30302;BME280;17111;52.130;5.028;2023-03-03T09:42:45;102852.16;;;16.45;46.07
30302;BME280;17111;52.130;5.028;2023-03-03T09:45:25;102853.69;;;16.49;47.00
30302;BME280;17111;52.130;5.028;2023-03-03T09:48:16;102852.44;;;16.55;46.74
30302;BME280;17111;52.130;5.028;2023-03-03T09:56:32;102859.06;;;16.78;46.12
30302;BME280;17111;52.130;5.028;2023-03-03T10:04:52;102858.19;;;17.06;46.64
30302;BME280;17111;52.130;5.028;2023-03-03T10:10:50;102849.16;;;17.21;46.40
30302;BME280;17111;52.130;5.028;2023-03-03T10:13:22;102861.00;;;17.32;45.95
30302;BME280;17111;52.130;5.028;2023-03-03T10:18:54;102866.13;;;17.49;46.25
30302;BME280;17111;52.130;5.028;2023-03-03T10:21:30;102858.53;;;17.56;46.26
30302;BME280;17111;52.130;5.028;2023-03-03T10:27:07;102857.63;;;17.69;46.27
30302;BME280;17111;52.130;5.028;2023-03-03T10:30:10;102867.97;;;17.75;45.68
30302;BME280;17111;52.130;5.028;2023-03-03T10:33:16;102861.34;;;17.81;46.18
30302;BME280;17111;52.130;5.028;2023-03-03T10:35:48;102862.94;;;17.84;46.09
30302;BME280;17111;52.130;5.028;2023-03-03T10:39:00;102862.63;;;17.88;45.67
30302;BME280;17111;52.130;5.028;2023-03-03T10:41:35;102857.94;;;17.92;45.47
30302;BME280;17111;52.130;5.028;2023-03-03T10:49:55;102851.53;;;18.07;45.44
30302;BME280;17111;52.130;5.028;2023-03-03T10:52:43;102854.75;;;18.12;45.45
30302;BME280;17111;52.130;5.028;2023-03-03T11:06:24;102857.16;;;18.30;45.17
30302;BME280;17111;52.130;5.028;2023-03-03T11:11:53;102858.41;;;18.37;44.92
30302;BME280;17111;52.130;5.028;2023-03-03T11:14:28;102857.47;;;18.38;44.91
30302;BME280;17111;52.130;5.028;2023-03-03T11:17:10;102848.44;;;18.39;45.30
30302;BME280;17111;52.130;5.028;2023-03-03T11:20:03;102853.69;;;18.40;45.12
30302;BME280;17111;52.130;5.028;2023-03-03T11:22:56;102856.28;;;18.42;45.31
30302;BME280;17111;52.130;5.028;2023-03-03T11:25:34;102847.16;;;18.44;45.07
30302;BME280;17111;52.130;5.028;2023-03-03T11:30:59;102851.44;;;18.47;45.28
30302;BME280;17111;52.130;5.028;2023-03-03T11:33:36;102842.41;;;18.48;45.25
30302;BME280;17111;52.130;5.028;2023-03-03T11:36:20;102837.81;;;18.50;45.18
30302;BME280;17111;52.130;5.028;2023-03-03T11:41:40;102841.16;;;18.54;44.99
30302;BME280;17111;52.130;5.028;2023-03-03T11:44:10;102832.84;;;18.57;44.57
30302;BME280;17111;52.130;5.028;2023-03-03T11:46:45;102834.59;;;18.58;44.46
30302;BME280;17111;52.130;5.028;2023-03-03T11:57:21;102838.31;;;18.68;44.79
30302;BME280;17111;52.130;5.028;2023-03-03T11:59:55;102825.75;;;18.68;44.18
30302;BME280;17111;52.130;5.028;2023-03-03T12:14:10;102826.72;;;18.67;43.91
30302;BME280;17111;52.130;5.028;2023-03-03T12:25:38;102814.41;;;18.78;44.10
30302;BME280;17111;52.130;5.028;2023-03-03T12:28:18;102808.78;;;18.81;44.06
30302;BME280;17111;52.130;5.028;2023-03-03T12:33:31;102802.13;;;18.86;44.51
30302;BME280;17111;52.130;5.028;2023-03-03T12:38:55;102805.53;;;18.88;44.23
30302;BME280;17111;52.130;5.028;2023-03-03T12:44:05;102801.03;;;18.89;44.16
30302;BME280;17111;52.130;5.028;2023-03-03T12:49:16;102799.19;;;18.89;44.14
30302;BME280;17111;52.130;5.028;2023-03-03T12:52:11;102790.28;;;18.89;44.46
30302;BME280;17111;52.130;5.028;2023-03-03T12:57:36;102789.53;;;18.87;43.54
30302;BME280;17111;52.130;5.028;2023-03-03T13:02:58;102786.84;;;18.87;43.92
30302;BME280;17111;52.130;5.028;2023-03-03T13:11:17;102782.28;;;19.00;44.58
30302;BME280;17111;52.130;5.028;2023-03-03T13:17:20;102784.41;;;19.08;43.97
30302;BME280;17111;52.130;5.028;2023-03-03T13:27:26;102784.25;;;18.85;43.86
30302;BME280;17111;52.130;5.028;2023-03-03T13:30:01;102777.00;;;18.74;43.89
30302;BME280;17111;52.130;5.028;2023-03-03T13:32:37;102777.66;;;18.65;44.02
30302;BME280;17111;52.130;5.028;2023-03-03T13:35:23;102779.47;;;18.52;44.44
30302;BME280;17111;52.130;5.028;2023-03-03T13:37:55;102779.06;;;18.45;44.26
30302;BME280;17111;52.130;5.028;2023-03-03T13:40:40;102785.84;;;18.38;44.97
30302;BME280;17111;52.130;5.028;2023-03-03T13:43:21;102772.09;;;18.30;44.38
30302;BME280;17111;52.130;5.028;2023-03-03T13:46:13;102772.53;;;18.24;44.92
30302;BME280;17111;52.130;5.028;2023-03-03T13:51:42;102777.13;;;18.35;45.30
30302;BME280;17111;52.130;5.028;2023-03-03T13:57:08;102774.88;;;18.54;44.85
30302;BME280;17111;52.130;5.028;2023-03-03T14:05:25;102782.16;;;18.78;44.82
30302;BME280;17111;52.130;5.028;2023-03-03T14:07:59;102784.19;;;18.87;44.52
30302;BME280;17111;52.130;5.028;2023-03-03T14:10:33;102775.66;;;18.93;45.03
30302;BME280;17111;52.130;5.028;2023-03-03T14:13:16;102785.19;;;18.97;44.66
30302;BME280;17111;52.130;5.028;2023-03-03T14:16:00;102781.31;;;19.01;44.00
30302;BME280;17111;52.130;5.028;2023-03-03T14:18:33;102780.47;;;19.01;43.87
30302;BME280;17111;52.130;5.028;2023-03-03T14:21:10;102780.59;;;18.99;43.97
30302;BME280;17111;52.130;5.028;2023-03-03T14:24:02;102775.22;;;18.99;43.64
30302;BME280;17111;52.130;5.028;2023-03-03T14:26:54;102778.53;;;19.03;44.34
30302;BME280;17111;52.130;5.028;2023-03-03T14:31:59;102770.13;;;19.07;43.89
30302;BME280;17111;52.130;5.028;2023-03-03T14:34:36;102766.69;;;19.05;43.61
30302;BME280;17111;52.130;5.028;2023-03-03T14:37:27;102760.22;;;19.08;44.20
30302;BME280;17111;52.130;5.028;2023-03-03T14:40:20;102760.75;;;19.13;43.77
30302;BME280;17111;52.130;5.028;2023-03-03T14:42:56;102753.22;;;19.18;44.70
30302;BME280;17111;52.130;5.028;2023-03-03T14:45:34;102758.34;;;19.21;44.57
30302;BME280;17111;52.130;5.028;2023-03-03T14:50:38;102754.13;;;19.30;44.83
30302;BME280;17111;52.130;5.028;2023-03-03T14:53:30;102754.00;;;19.31;43.88
30302;BME280;17111;52.130;5.028;2023-03-03T14:58:48;102752.66;;;19.37;43.93
30302;BME280;17111;52.130;5.028;2023-03-03T15:04:00;102749.88;;;19.14;43.30
30302;BME280;17111;52.130;5.028;2023-03-03T15:06:48;102752.72;;;19.00;43.18
30302;BME280;17111;52.130;5.028;2023-03-03T15:09:28;102751.03;;;18.99;43.95
30302;BME280;17111;52.130;5.028;2023-03-03T15:11:59;102744.88;;;19.10;43.63
30302;BME280;17111;52.130;5.028;2023-03-03T15:14:41;102743.19;;;19.20;44.02
30302;BME280;17111;52.130;5.028;2023-03-03T15:26:05;102732.78;;;19.75;43.31
30302;BME280;17111;52.130;5.028;2023-03-03T15:39:51;102721.94;;;20.32;42.34
30302;BME280;17111;52.130;5.028;2023-03-03T15:43:19;102721.09;;;20.43;42.48
30302;BME280;17111;52.130;5.028;2023-03-03T15:45:33;102724.91;;;20.52;42.20
30302;BME280;17111;52.130;5.028;2023-03-03T15:56:13;102711.34;;;20.85;41.64
30302;BME280;17111;52.130;5.028;2023-03-03T15:59:13;102708.88;;;20.93;41.45
30302;BME280;17111;52.130;5.028;2023-03-03T16:01:57;102712.53;;;21.04;41.64
30302;BME280;17111;52.130;5.028;2023-03-03T16:04:32;102703.66;;;21.13;41.84
30302;BME280;17111;52.130;5.028;2023-03-03T16:10:10;102704.94;;;21.30;40.45
30302;BME280;17111;52.130;5.028;2023-03-03T16:12:55;102710.63;;;21.27;41.38
30302;BME280;17111;52.130;5.028;2023-03-03T16:15:43;102706.31;;;21.24;41.07
30302;BME280;17111;52.130;5.028;2023-03-03T16:21:25;102714.44;;;21.13;41.47
30302;BME280;17111;52.130;5.028;2023-03-03T16:30:02;102715.66;;;20.88;41.33